Time;durP1;ratioP1;P1;durP2;ratioP2;P2;SDS_P1;SDS_P2;PMS_P1;PMS_P2;Temp;Humidity;BMP_temperature;BMP_pressure;BME280_temperature;BME280_humidity;BME280_pressure;Samples;Min_cycle;Max_cycle;Signal;HPM_P1;HPM_P2
2024/01/05 00:00:00;;;;;;;2.13;0.55;;;;;;;9.95;100.00;99592.59;5078199;28;20096;-47
2024/01/05 00:02:29;;;;;;;1.65;0.70;;;;;;;9.90;100.00;99594.72;5078455;28;20044;-47
2024/01/05 00:04:57;;;;;;;2.35;0.88;;;;;;;9.96;100.00;99594.31;5077344;28;20044;-47
2024/01/05 00:07:28;;;;;;;1.88;0.60;;;;;;;9.82;100.00;99606.81;5078796;28;20045;-47
2024/01/05 00:09:57;;;;;;;3.50;0.70;;;;;;;9.94;100.00;99608.66;5076903;28;20078;-48
2024/01/05 00:12:26;;;;;;;2.80;0.77;;;;;;;9.87;100.00;99602.06;5075026;28;20113;-47
2024/01/05 00:14:54;;;;;;;1.10;0.50;;;;;;;9.88;100.00;99603.75;5074823;28;20558;-48
2024/01/05 00:17:22;;;;;;;3.55;0.93;;;;;;;9.92;100.00;99603.44;5074790;28;20052;-48
2024/01/05 00:19:51;;;;;;;2.40;0.70;;;;;;;9.95;100.00;99607.72;5075030;28;20497;-47
2024/01/05 00:22:22;;;;;;;2.75;0.90;;;;;;;9.89;100.00;99609.00;5074683;28;20413;-46
2024/01/05 00:24:51;;;;;;;1.95;0.88;;;;;;;9.83;100.00;99617.38;5074999;28;20524;-46
2024/01/05 00:27:20;;;;;;;2.50;0.88;;;;;;;9.82;100.00;99617.47;5074994;28;20045;-46
2024/01/05 00:29:49;;;;;;;3.80;1.17;;;;;;;9.73;100.00;99614.47;5074991;28;20056;-47
2024/01/05 00:32:17;;;;;;;2.92;0.80;;;;;;;9.80;100.00;99620.25;5074631;28;20051;-47
2024/01/05 00:34:46;;;;;;;2.67;0.77;;;;;;;9.86;100.00;99619.84;5074718;28;20131;-48
2024/01/05 00:37:15;;;;;;;1.25;0.63;;;;;;;9.68;100.00;99623.75;5075081;28;20056;-47
2024/01/05 00:39:44;;;;;;;3.10;0.88;;;;;;;9.61;100.00;99615.31;5075076;28;20128;-47
2024/01/05 00:42:14;;;;;;;3.15;0.82;;;;;;;9.59;100.00;99614.56;5075888;28;20569;-47
2024/01/05 00:44:43;;;;;;;3.55;0.77;;;;;;;9.61;100.00;99609.97;5074935;28;20048;-48
2024/01/05 00:47:11;;;;;;;1.67;0.60;;;;;;;9.62;100.00;99600.16;5074406;28;20044;-48
2024/01/05 00:49:40;;;;;;;2.88;0.80;;;;;;;9.58;100.00;99609.34;5074610;28;20433;-48
2024/01/05 00:52:08;;;;;;;2.67;0.77;;;;;;;9.60;100.00;99613.59;5074460;28;20048;-47
2024/01/05 00:54:37;;;;;;;3.58;1.00;;;;;;;9.60;100.00;99612.75;5073941;28;20076;-47
2024/01/05 00:57:05;;;;;;;3.95;1.02;;;;;;;9.61;100.00;99620.63;5073696;28;20048;-46
2024/01/05 00:59:39;;;;;;;3.77;0.83;;;;;;;9.60;100.00;99610.06;5074335;28;20049;-45
2024/01/05 01:02:07;;;;;;;2.72;0.77;;;;;;;9.54;100.00;99619.31;5074491;28;20041;-48
2024/01/05 01:04:36;;;;;;;4.28;0.90;;;;;;;9.48;100.00;99619.75;5075625;28;20049;-47
2024/01/05 01:07:04;;;;;;;3.03;0.85;;;;;;;9.47;100.00;99612.72;5075866;28;20044;-48
2024/01/05 01:09:33;;;;;;;2.50;0.80;;;;;;;9.59;100.00;99611.03;5075480;28;20601;-48
2024/01/05 01:12:01;;;;;;;3.65;0.70;;;;;;;9.59;100.00;99616.38;5075121;28;20048;-47
2024/01/05 01:14:30;;;;;;;3.05;0.98;;;;;;;9.60;100.00;99616.25;5075276;28;20052;-47
2024/01/05 01:16:59;;;;;;;3.35;0.90;;;;;;;9.57;100.00;99619.13;5075635;28;20088;-48
2024/01/05 01:19:28;;;;;;;2.08;0.70;;;;;;;9.55;100.00;99613.03;5077035;28;20136;-47
2024/01/05 01:21:57;;;;;;;2.22;0.77;;;;;;;9.48;100.00;99614.41;5077044;28;20048;-47
2024/01/05 01:24:28;;;;;;;3.75;0.90;;;;;;;9.53;100.00;99619.41;5076857;28;20519;-48
2024/01/05 01:26:56;;;;;;;2.70;0.50;;;;;;;9.58;100.00;99617.31;5077107;28;20051;-46
2024/01/05 01:29:25;;;;;;;3.42;0.73;;;;;;;9.60;100.00;99620.72;5076278;28;20045;-46
2024/01/05 01:31:53;;;;;;;2.78;0.93;;;;;;;9.44;100.00;99608.41;5077063;28;20049;-46
2024/01/05 01:34:23;;;;;;;2.22;0.85;;;;;;;9.46;100.00;99605.69;5077024;28;20052;-46
2024/01/05 01:36:52;;;;;;;2.63;0.80;;;;;;;9.50;100.00;99607.16;5077447;28;20055;-46
2024/01/05 01:39:20;;;;;;;4.60;1.20;;;;;;;9.44;100.00;99602.25;5077542;28;20117;-46
2024/01/05 01:41:49;;;;;;;2.17;0.80;;;;;;;9.43;100.00;99589.88;5077208;28;20141;-47
2024/01/05 01:44:17;;;;;;;3.63;0.98;;;;;;;9.39;100.00;99602.56;5075482;28;20048;-47
2024/01/05 01:46:46;;;;;;;1.20;0.70;;;;;;;9.39;100.00;99602.56;5075916;28;20051;-45
2024/01/05 01:49:14;;;;;;;1.88;0.60;;;;;;;9.38;100.00;99618.63;5076010;28;20056;-46
2024/01/05 01:51:45;;;;;;;2.50;0.70;;;;;;;9.38;100.00;99613.31;5074875;28;20071;-44
2024/01/05 01:54:13;;;;;;;3.97;0.85;;;;;;;9.37;100.00;99611.59;5075271;28;20044;-47
2024/01/05 01:56:45;;;;;;;4.55;1.10;;;;;;;9.28;100.00;99606.88;5077017;28;20052;-46
2024/01/05 01:59:14;;;;;;;3.90;1.15;;;;;;;9.26;100.00;99603.44;5081034;28;20055;-46
2024/01/05 02:01:44;;;;;;;2.92;0.90;;;;;;;9.12;100.00;99601.69;5079835;28;20109;-47
2024/01/05 02:04:15;;;;;;;2.50;1.02;;;;;;;9.16;100.00;99609.34;5079105;28;20040;-47
2024/01/05 02:06:46;;;;;;;2.97;0.70;;;;;;;9.12;100.00;99607.84;5075693;28;20045;-46
2024/01/05 02:09:15;;;;;;;3.88;0.95;;;;;;;9.16;100.00;99609.34;5073799;28;20054;-47
2024/01/05 02:11:43;;;;;;;2.53;0.70;;;;;;;9.05;100.00;99600.38;5073491;28;20048;-46
2024/01/05 02:14:12;;;;;;;2.33;0.63;;;;;;;9.06;100.00;99594.09;5073789;28;20066;-47
2024/01/05 02:16:41;;;;;;;2.40;0.82;;;;;;;9.14;100.00;99605.09;5073476;28;20049;-47
2024/01/05 02:19:11;;;;;;;2.85;1.20;;;;;;;9.06;100.00;99596.75;5073990;28;20389;-46
2024/01/05 02:21:43;;;;;;;2.72;0.88;;;;;;;9.03;100.00;99605.78;5073511;28;20076;-47
2024/01/05 02:24:13;;;;;;;3.63;0.98;;;;;;;9.05;100.00;99614.50;5073674;28;20041;-47
2024/01/05 02:26:42;;;;;;;2.42;0.75;;;;;;;9.15;100.00;99617.44;5072953;28;20052;-47
2024/01/05 02:29:10;;;;;;;3.88;1.02;;;;;;;9.13;100.00;99630.00;5072632;28;20174;-47
2024/01/05 02:31:39;;;;;;;3.47;1.08;;;;;;;9.04;100.00;99623.44;5074979;28;20521;-47
2024/01/05 02:34:07;;;;;;;2.22;1.00;;;;;;;9.02;100.00;99628.03;5076414;28;20052;-46
2024/01/05 02:36:36;;;;;;;3.75;0.85;;;;;;;9.00;100.00;99623.75;5075944;28;20049;-47
2024/01/05 02:39:04;;;;;;;3.30;0.85;;;;;;;9.04;100.00;99626.13;5075404;28;20389;-47
2024/01/05 02:41:35;;;;;;;4.97;1.05;;;;;;;9.07;100.00;99622.38;5073968;28;20051;-47
2024/01/05 02:44:03;;;;;;;4.57;1.08;;;;;;;9.11;100.00;99619.47;5071003;28;20133;-46
2024/01/05 02:46:33;;;;;;;2.85;0.77;;;;;;;9.09;100.00;99613.38;5071076;28;20049;-47
2024/01/05 02:49:01;;;;;;;2.08;0.75;;;;;;;8.97;100.00;99624.78;5071256;28;20052;-47
2024/01/05 02:51:30;;;;;;;3.42;0.88;;;;;;;9.03;100.00;99620.91;5071215;28;20051;-47
2024/01/05 02:53:59;;;;;;;3.28;0.82;;;;;;;8.88;100.00;99614.75;5071263;28;20044;-47
2024/01/05 02:56:27;;;;;;;2.90;1.02;;;;;;;8.85;100.00;99614.94;5071088;28;20429;-47
2024/01/05 02:58:57;;;;;;;3.47;0.80;;;;;;;8.79;100.00;99613.53;5070988;28;20052;-47
2024/01/05 03:01:25;;;;;;;1.92;0.68;;;;;;;8.76;100.00;99610.19;5071451;28;20048;-46
2024/01/05 03:03:53;;;;;;;3.60;0.85;;;;;;;8.70;100.00;99608.78;5074002;28;20136;-47
2024/01/05 03:06:22;;;;;;;3.78;0.90;;;;;;;8.83;100.00;99608.88;5074468;28;20477;-46
2024/01/05 03:08:51;;;;;;;2.97;0.90;;;;;;;8.87;100.00;99610.38;5074403;28;20118;-46
2024/01/05 03:11:19;;;;;;;3.60;1.10;;;;;;;8.82;100.00;99605.34;5073958;28;20044;-47
2024/01/05 03:13:48;;;;;;;2.97;1.13;;;;;;;8.72;100.00;99600.72;5074210;28;20509;-48
2024/01/05 03:16:18;;;;;;;2.33;0.98;;;;;;;8.65;100.00;99591.41;5074149;28;20130;-47
2024/01/05 03:18:46;;;;;;;4.88;0.90;;;;;;;8.70;100.00;99595.50;5072812;28;20080;-48
2024/01/05 03:21:15;;;;;;;4.13;1.00;;;;;;;8.65;100.00;99604.69;5074181;28;20044;-48
2024/01/05 03:23:43;;;;;;;4.68;1.10;;;;;;;8.64;100.00;99601.19;5074078;28;20041;-47
2024/01/05 03:26:12;;;;;;;4.10;0.90;;;;;;;8.69;100.00;99598.25;5074118;28;20127;-46
2024/01/05 03:28:40;;;;;;;4.13;1.05;;;;;;;8.71;100.00;99593.69;5074447;28;20040;-45
2024/01/05 03:31:12;;;;;;;8.05;3.63;;;;;;;8.62;100.00;99586.28;5074211;28;20071;-46
2024/01/05 03:33:43;;;;;;;7.93;4.00;;;;;;;8.59;100.00;99585.53;5074297;28;20079;-47
2024/01/05 03:36:12;;;;;;;3.90;1.38;;;;;;;8.49;100.00;99581.75;5074096;28;20489;-46
2024/01/05 03:38:41;;;;;;;6.10;1.30;;;;;;;8.58;100.00;99590.91;5073707;28;20063;-46
2024/01/05 03:41:10;;;;;;;3.70;1.10;;;;;;;8.37;100.00;99598.44;5074234;28;20140;-45
2024/01/05 03:43:38;;;;;;;4.13;1.33;;;;;;;8.34;100.00;99601.25;5074071;28;20048;-46
2024/01/05 03:46:10;;;;;;;2.58;0.80;;;;;;;8.28;100.00;99614.91;5074326;28;20049;-46
2024/01/05 03:48:39;;;;;;;3.13;1.20;;;;;;;8.23;100.00;99622.31;5074140;28;20045;-48
2024/01/05 03:51:09;;;;;;;4.85;1.10;;;;;;;8.14;100.00;99630.81;5073973;28;20052;-47
2024/01/05 03:53:37;;;;;;;2.92;1.00;;;;;;;8.02;100.00;99630.63;5074244;28;20052;-47
2024/01/05 03:56:08;;;;;;;3.60;1.20;;;;;;;8.08;100.00;99633.84;5074309;28;20413;-48
2024/01/05 03:58:36;;;;;;;2.38;1.10;;;;;;;8.13;100.00;99642.41;5073820;28;20048;-46
2024/01/05 04:01:05;;;;;;;3.42;0.80;;;;;;;8.06;100.00;99641.91;5073361;28;20055;-46
2024/01/05 04:03:34;;;;;;;3.65;1.13;;;;;;;8.10;100.00;99637.25;5073777;28;20056;-45
2024/01/05 04:06:03;;;;;;;1.90;1.00;;;;;;;8.21;100.00;99638.34;5073415;28;20496;-46
2024/01/05 04:08:33;;;;;;;3.28;0.90;;;;;;;8.31;100.00;99628.00;5073305;28;20501;-46
2024/01/05 04:11:02;;;;;;;3.42;1.20;;;;;;;8.25;100.00;99642.50;5073423;28;20135;-48
2024/01/05 04:13:30;;;;;;;3.10;1.05;;;;;;;8.24;100.00;99630.19;5072938;28;20143;-48
2024/01/05 04:15:58;;;;;;;3.50;1.10;;;;;;;8.33;100.00;99639.41;5072605;28;20049;-46
2024/01/05 04:18:26;;;;;;;3.67;1.02;;;;;;;8.34;100.00;99633.13;5072754;28;20082;-46
2024/01/05 04:20:55;;;;;;;3.97;1.05;;;;;;;8.31;100.00;99636.00;5073409;28;20083;-45
2024/01/05 04:23:23;;;;;;;3.15;1.08;;;;;;;8.34;100.00;99633.13;5073423;28;20056;-45
2024/01/05 04:25:53;;;;;;;3.63;1.30;;;;;;;8.35;100.00;99639.34;5073266;28;20080;-46
2024/01/05 04:28:22;;;;;;;4.28;1.50;;;;;;;8.35;100.00;99645.50;5073229;28;20063;-46
2024/01/05 04:30:50;;;;;;;3.80;1.20;;;;;;;8.27;100.00;99645.06;5072816;28;20127;-44
2024/01/05 04:33:18;;;;;;;3.75;1.60;;;;;;;8.22;100.00;99647.16;5073069;28;20091;-46
2024/01/05 04:35:47;;;;;;;3.90;1.50;;;;;;;8.16;100.00;99636.91;5072964;28;20110;-46
2024/01/05 04:38:15;;;;;;;2.58;1.13;;;;;;;8.21;100.00;99642.81;5072980;28;20422;-47
2024/01/05 04:40:44;;;;;;;3.95;1.13;;;;;;;8.22;100.00;99647.16;5072799;28;20048;-46
2024/01/05 04:43:13;;;;;;;2.88;1.00;;;;;;;8.22;100.00;99653.34;5072672;28;20091;-46
2024/01/05 04:45:42;;;;;;;3.80;1.27;;;;;;;8.13;100.00;99659.19;5072491;28;20044;-47
2024/01/05 04:48:10;;;;;;;4.85;1.25;;;;;;;8.15;100.00;99654.63;5072631;28;20403;-46
2024/01/05 04:50:39;;;;;;;5.30;1.52;;;;;;;8.14;100.00;99663.56;5072818;28;20087;-46
2024/01/05 04:53:07;;;;;;;2.90;1.15;;;;;;;8.20;100.00;99659.66;5072500;28;20643;-47
2024/01/05 04:55:35;;;;;;;5.43;1.27;;;;;;;8.23;100.00;99672.78;5072513;28;20076;-47
2024/01/05 04:58:04;;;;;;;3.17;1.20;;;;;;;8.20;100.00;99672.94;5072141;28;20131;-48
2024/01/05 05:00:34;;;;;;;4.20;1.00;;;;;;;8.14;100.00;99671.53;5072470;28;20044;-47
2024/01/05 05:03:03;;;;;;;4.75;1.02;;;;;;;8.12;100.00;99677.88;5072070;28;20045;-45
2024/01/05 05:05:32;;;;;;;4.88;1.35;;;;;;;8.03;100.00;99680.13;5071671;28;20482;-46
2024/01/05 05:08:00;;;;;;;2.75;1.00;;;;;;;8.01;100.00;99687.34;5071619;28;20048;-47
2024/01/05 05:10:29;;;;;;;3.95;1.25;;;;;;;7.94;100.00;99685.13;5071530;28;20063;-46
2024/01/05 05:12:57;;;;;;;3.92;1.45;;;;;;;7.91;100.00;99679.97;5071992;28;20158;-46
2024/01/05 05:15:25;;;;;;;4.43;1.55;;;;;;;7.92;100.00;99687.03;5071870;28;20151;-46
2024/01/05 05:17:55;;;;;;;6.93;1.42;;;;;;;7.95;100.00;99677.06;5071591;28;20045;-47
2024/01/05 05:20:24;;;;;;;3.00;1.33;;;;;;;7.96;100.00;99676.13;5071429;28;20079;-46
2024/01/05 05:22:52;;;;;;;4.28;1.40;;;;;;;7.91;100.00;99677.31;5071744;28;20139;-46
2024/01/05 05:25:21;;;;;;;5.13;1.75;;;;;;;7.83;100.00;99674.28;5071406;28;20052;-48
2024/01/05 05:27:50;;;;;;;4.70;1.67;;;;;;;7.80;100.00;99685.91;5072051;28;20095;-46
2024/01/05 05:30:18;;;;;;;5.30;1.75;;;;;;;7.82;100.00;99677.88;5072075;28;20096;-48
2024/01/05 05:32:47;;;;;;;6.95;1.60;;;;;;;7.82;100.00;99686.69;5071403;28;20510;-46
2024/01/05 05:35:17;;;;;;;5.07;1.48;;;;;;;7.79;100.00;99680.69;5071392;28;20079;-47
2024/01/05 05:37:46;;;;;;;3.72;1.35;;;;;;;7.80;100.00;99687.72;5071325;28;20055;-46
2024/01/05 05:40:14;;;;;;;5.07;1.55;;;;;;;7.77;100.00;99691.41;5071687;28;20060;-49
2024/01/05 05:42:43;;;;;;;4.55;1.63;;;;;;;7.69;100.00;99685.69;5071756;28;20040;-46
2024/01/05 05:45:11;;;;;;;3.92;1.30;;;;;;;7.62;100.00;99684.31;5071626;28;20099;-47
2024/01/05 05:47:40;;;;;;;6.07;1.52;;;;;;;7.63;100.00;99701.97;5071601;28;20549;-46
2024/01/05 05:50:08;;;;;;;6.88;1.30;;;;;;;7.63;100.00;99701.97;5071534;28;20198;-47
2024/01/05 05:52:38;;;;;;;4.50;1.33;;;;;;;7.68;100.00;99710.50;5071313;28;20056;-46
2024/01/05 05:55:11;;;;;;;3.15;1.30;;;;;;;7.71;100.00;99713.84;5071418;28;20048;-48
2024/01/05 05:57:40;;;;;;;5.95;1.60;;;;;;;7.33;100.00;99713.34;5071207;28;20087;-49
2024/01/05 06:00:10;;;;;;;5.30;1.90;;;;;;;7.26;100.00;99727.91;5070994;28;20060;-48
2024/01/05 06:02:39;;;;;;;8.27;2.10;;;;;;;7.04;100.00;99727.34;5071431;28;20135;-45
2024/01/05 06:05:09;;;;;;;6.18;1.98;;;;;;;7.07;100.00;99735.16;5070662;28;20462;-47
2024/01/05 06:07:38;;;;;;;6.38;1.90;;;;;;;7.14;100.00;99736.50;5071061;28;20128;-46
2024/01/05 06:10:08;;;;;;;5.40;2.20;;;;;;;7.11;100.00;99736.69;5070674;28;20179;-47
2024/01/05 06:12:37;;;;;;;6.38;2.28;;;;;;;7.13;100.00;99746.25;5071190;28;20130;-46
2024/01/05 06:15:07;;;;;;;5.25;1.95;;;;;;;7.21;100.00;99745.00;5070831;28;20692;-47
2024/01/05 06:17:35;;;;;;;4.85;2.00;;;;;;;7.24;100.00;99743.06;5071075;28;20088;-46
2024/01/05 06:20:07;;;;;;;6.65;2.00;;;;;;;7.23;100.00;99749.25;5071439;28;20147;-46
2024/01/05 06:22:37;;;;;;;8.75;2.40;;;;;;;7.23;100.00;99754.56;5071425;28;20064;-46
2024/01/05 06:25:06;;;;;;;5.15;2.30;;;;;;;7.25;100.00;99755.38;5071258;28;20054;-45
2024/01/05 06:27:35;;;;;;;3.88;2.03;;;;;;;7.21;100.00;99752.94;5071152;28;20423;-45
2024/01/05 06:30:08;;;;;;;9.38;2.97;;;;;;;7.19;100.00;99755.69;5076859;28;20048;-45
2024/01/05 06:32:38;;;;;;;8.55;2.65;;;;;;;7.15;100.00;99756.81;5078277;28;20044;-44
2024/01/05 06:35:08;;;;;;;8.32;2.95;;;;;;;7.19;100.00;99766.31;5072920;28;20098;-49
2024/01/05 06:37:37;;;;;;;5.32;2.28;;;;;;;7.17;100.00;99762.88;5072902;28;20178;-45
2024/01/05 06:40:07;;;;;;;6.10;2.55;;;;;;;7.12;100.00;99754.31;5075675;28;20090;-46
2024/01/05 06:42:35;;;;;;;6.43;2.60;;;;;;;6.97;100.00;99752.50;5074984;28;20094;-47
2024/01/05 06:45:05;;;;;;;5.93;2.58;;;;;;;7.05;100.00;99766.19;5074927;28;20044;-46
2024/01/05 06:47:33;;;;;;;6.13;2.80;;;;;;;7.15;100.00;99754.16;5074542;28;20044;-47
2024/01/05 06:50:02;;;;;;;7.13;2.47;;;;;;;7.24;100.00;99747.47;5074047;28;20472;-49
2024/01/05 06:52:33;;;;;;;7.10;2.85;;;;;;;7.10;100.00;99738.47;5076075;28;20049;-46
2024/01/05 06:55:05;;;;;;;7.60;2.90;;;;;;;7.13;100.00;99725.03;5076392;28;20120;-51
2024/01/05 06:57:35;;;;;;;6.57;2.97;;;;;;;7.20;100.00;99725.56;5075614;28;20051;-46
2024/01/05 07:00:04;;;;;;;9.60;2.85;;;;;;;7.36;100.00;99721.16;5075592;28;20049;-48
2024/01/05 07:02:33;;;;;;;8.82;3.10;;;;;;;7.37;100.00;99725.50;5074701;28;20099;-47
2024/01/05 07:05:01;;;;;;;11.18;3.13;;;;;;;7.41;100.00;99729.69;5074495;28;20048;-47
2024/01/05 07:07:29;;;;;;;7.03;2.70;;;;;;;7.42;100.00;99726.09;5074423;28;20534;-48
2024/01/05 07:09:58;;;;;;;9.10;2.67;;;;;;;7.36;100.00;99723.78;5074034;28;20052;-46
2024/01/05 07:12:28;;;;;;;7.43;3.08;;;;;;;7.43;100.00;99726.94;5074419;28;20047;-45
2024/01/05 07:14:57;;;;;;;8.60;2.85;;;;;;;7.45;100.00;99727.75;5074777;28;20092;-45
2024/01/05 07:17:25;;;;;;;8.73;3.20;;;;;;;7.53;100.00;99719.31;5075655;28;20109;-47
2024/01/05 07:19:54;;;;;;;7.93;3.05;;;;;;;7.58;100.00;99727.91;5075878;28;20074;-46
2024/01/05 07:22:22;;;;;;;9.80;3.47;;;;;;;7.65;100.00;99718.66;5074276;28;20041;-52
2024/01/05 07:24:50;;;;;;;8.07;3.60;;;;;;;7.59;100.00;99724.31;5074072;28;20140;-47
2024/01/05 07:27:18;;;;;;;12.10;4.70;;;;;;;7.60;100.00;99716.25;5066295;28;20045;-45
2024/01/05 07:29:48;;;;;;;13.18;3.70;;;;;;;7.64;100.00;99714.31;5059076;28;20049;-47
2024/01/05 07:32:16;;;;;;;13.82;4.65;;;;;;;7.74;100.00;99712.84;5053397;28;20110;-45
2024/01/05 07:34:45;;;;;;;9.88;4.13;;;;;;;7.85;100.00;99717.53;5053268;28;20056;-44
2024/01/05 07:37:13;;;;;;;13.23;4.28;;;;;;;7.80;100.00;99715.13;5053266;28;20072;-45
2024/01/05 07:39:41;;;;;;;18.15;4.07;;;;;;;8.18;100.00;99706.72;5053240;28;20045;-44
2024/01/05 07:42:09;;;;;;;141.40;55.38;;;;;;;8.25;100.00;99703.63;5053205;28;20132;-45
2024/01/05 07:44:38;;;;;;;225.07;95.15;;;;;;;8.33;100.00;99708.50;5053223;28;20041;-43
2024/01/05 07:47:09;;;;;;;26.08;11.65;;;;;;;8.49;100.00;99705.78;5053180;28;20466;-46
2024/01/05 07:49:37;;;;;;;14.07;5.07;;;;;;;8.40;100.00;99696.59;5053356;28;20124;-45
2024/01/05 07:52:06;;;;;;;8.80;3.53;;;;;;;8.43;100.00;99701.72;5052984;28;20045;-44
2024/01/05 07:54:34;;;;;;;17.13;4.30;;;;;;;8.37;100.00;99699.41;5052576;28;20051;-44
2024/01/05 07:57:03;;;;;;;8.70;4.15;;;;;;;8.29;100.00;99706.94;5053081;28;20049;-44
2024/01/05 07:59:31;;;;;;;10.27;4.55;;;;;;;8.26;100.00;99708.00;5052780;28;20049;-45
2024/01/05 08:01:59;;;;;;;10.98;5.38;;;;;;;7.93;100.00;99710.84;5052409;28;20085;-45
2024/01/05 08:04:29;;;;;;;14.68;6.30;;;;;;;7.71;100.00;99710.31;5052952;28;20415;-46
2024/01/05 08:06:58;;;;;;;17.63;6.60;;;;;;;7.88;100.00;99710.22;5052650;28;20128;-46
2024/01/05 08:09:26;;;;;;;16.27;7.35;;;;;;;7.90;100.00;99718.94;5052327;28;20124;-45
2024/01/05 08:11:55;;;;;;;21.17;6.70;;;;;;;7.87;100.00;99716.47;5052462;28;20092;-46
2024/01/05 08:14:23;;;;;;;14.52;6.57;;;;;;;7.89;100.00;99725.22;5052150;28;20144;-44
2024/01/05 08:16:52;;;;;;;19.27;6.70;;;;;;;8.01;100.00;99731.66;5052025;28;20092;-46
2024/01/05 08:19:20;;;;;;;15.52;6.30;;;;;;;7.99;100.00;99731.69;5052797;28;20194;-44
2024/01/05 08:21:51;;;;;;;13.07;6.07;;;;;;;7.95;100.00;99731.97;5052407;28;20162;-44
2024/01/05 08:24:19;;;;;;;14.50;5.63;;;;;;;8.08;100.00;99729.47;5052648;28;20551;-45
2024/01/05 08:26:47;;;;;;;12.82;5.20;;;;;;;7.76;100.00;99729.53;5052303;28;20482;-45
2024/01/05 08:29:16;;;;;;;10.88;5.20;;;;;;;7.79;100.00;99724.03;5052312;28;20052;-44
2024/01/05 08:31:44;;;;;;;9.60;5.38;;;;;;;7.89;100.00;99734.97;5052287;28;20049;-43
2024/01/05 08:34:13;;;;;;;13.85;4.90;;;;;;;8.04;100.00;99737.63;5052231;28;20056;-45
2024/01/05 08:36:42;;;;;;;13.73;5.88;;;;;;;8.16;100.00;99743.16;5054274;28;20049;-45
2024/01/05 08:39:12;;;;;;;15.35;6.32;;;;;;;8.22;100.00;99740.16;5071711;28;20098;-45
2024/01/05 08:41:43;;;;;;;12.07;5.38;;;;;;;8.35;100.00;99738.50;5070512;28;20052;-46
2024/01/05 08:44:11;;;;;;;12.68;5.85;;;;;;;8.30;100.00;99733.44;5071697;28;20569;-45
2024/01/05 08:46:39;;;;;;;9.95;4.93;;;;;;;8.37;100.00;99741.94;5071658;28;20071;-44
2024/01/05 08:49:08;;;;;;;13.32;5.68;;;;;;;8.47;100.00;99745.75;5072076;28;20094;-45
2024/01/05 08:51:42;;;;;;;10.45;5.47;;;;;;;8.55;100.00;99751.47;5072083;28;20048;-45
2024/01/05 08:54:14;;;;;;;11.38;5.40;;;;;;;8.71;100.00;99755.88;5071898;28;20485;-45
2024/01/05 08:56:44;;;;;;;9.07;5.07;;;;;;;8.80;100.00;99755.31;5072250;28;20099;-46
2024/01/05 08:59:12;;;;;;;11.70;5.20;;;;;;;8.97;100.00;99765.75;5071921;28;20044;-46
2024/01/05 09:01:41;;;;;;;12.05;4.90;;;;;;;8.63;100.00;99763.47;5071006;28;20044;-45
2024/01/05 09:04:10;;;;;;;13.20;5.60;;;;;;;8.60;100.00;99760.03;5071610;28;20094;-45
2024/01/05 09:06:39;;;;;;;9.80;4.90;;;;;;;8.55;100.00;99756.78;5071579;28;20040;-44
2024/01/05 09:09:07;;;;;;;12.88;4.95;;;;;;;8.75;100.00;99762.72;5071095;28;20083;-46
2024/01/05 09:11:40;;;;;;;313.27;145.15;;;;;;;8.94;100.00;99757.97;5071825;28;20134;-44
2024/01/05 09:14:08;;;;;;;31.13;16.40;;;;;;;9.04;100.00;99766.25;5068085;28;20041;-44
2024/01/05 09:16:37;;;;;;;11.48;5.85;;;;;;;9.11;100.00;99771.13;5059459;28;20052;-45
2024/01/05 09:19:05;;;;;;;10.18;5.35;;;;;;;8.96;100.00;99772.03;5055997;28;20501;-43
2024/01/05 09:21:34;;;;;;;9.75;4.88;;;;;;;9.10;100.00;99771.22;5070858;28;20183;-46
2024/01/05 09:24:02;;;;;;;10.85;4.80;;;;;;;9.07;100.00;99772.25;5063212;28;20106;-45
2024/01/05 09:26:31;;;;;;;10.85;5.05;;;;;;;8.99;100.00;99769.22;5051622;28;20041;-45
2024/01/05 09:29:04;;;;;;;8.10;4.80;;;;;;;9.01;100.00;99769.97;5051249;28;20048;-44
2024/01/05 09:31:33;;;;;;;7.95;4.22;;;;;;;8.89;100.00;99765.41;5051130;28;20045;-45
2024/01/05 09:34:01;;;;;;;9.15;4.70;;;;;;;8.92;100.00;99775.00;5050780;28;20045;-44
2024/01/05 09:36:29;;;;;;;19.90;5.85;;;;;;;9.00;100.00;99773.59;5050679;28;20531;-44
2024/01/05 09:38:58;;;;;;;11.88;5.05;;;;;;;9.08;100.00;99770.47;5054610;28;20080;-45
2024/01/05 09:41:29;;;;;;;12.25;5.07;;;;;;;9.16;100.00;99774.31;5070794;28;20087;-44
2024/01/05 09:44:00;;;;;;;10.00;5.60;;;;;;;9.10;100.00;99780.03;5070791;28;20051;-45
2024/01/05 09:46:30;;;;;;;10.95;5.53;;;;;;;9.26;100.00;99777.28;5070847;28;20048;-45
2024/01/05 09:49:01;;;;;;;12.35;5.55;;;;;;;9.30;100.00;99762.00;5070503;28;20047;-45
2024/01/05 09:51:30;;;;;;;13.02;5.68;;;;;;;9.38;100.00;99747.25;5070595;28;20098;-44
2024/01/05 09:53:59;;;;;;;13.73;6.05;;;;;;;9.33;100.00;99743.16;5070509;28;20057;-45
2024/01/05 09:56:28;;;;;;;14.00;5.63;;;;;;;9.48;100.00;99744.00;5070334;28;20547;-45
2024/01/05 09:58:57;;;;;;;10.80;5.50;;;;;;;9.53;100.00;99742.75;5070581;28;20067;-45
2024/01/05 10:01:26;;;;;;;9.63;5.45;;;;;;;9.50;100.00;99742.94;5067006;28;20145;-46
2024/01/05 10:03:58;;;;;;;10.85;5.28;;;;;;;9.66;100.00;99743.69;5077537;28;20049;-45
2024/01/05 10:06:26;;;;;;;11.52;5.80;;;;;;;9.67;100.00;99729.41;5077426;28;20044;-46
2024/01/05 10:08:58;;;;;;;11.73;5.55;;;;;;;9.79;100.00;99721.56;5079737;28;20047;-46
2024/01/05 10:11:31;;;;;;;10.38;5.75;;;;;;;9.81;100.00;99712.53;5078218;28;20131;-46
2024/01/05 10:14:05;;;;;;;12.10;6.40;;;;;;;9.86;100.00;99696.25;5081478;28;20036;-44
2024/01/05 10:16:37;;;;;;;9.32;5.28;;;;;;;9.74;100.00;99701.41;5082862;28;20052;-46
2024/01/05 10:19:14;;;;;;;14.98;5.45;;;;;;;9.80;100.00;99694.84;5083665;28;20040;-45
2024/01/05 10:21:44;;;;;;;8.23;4.78;;;;;;;9.83;100.00;99688.44;5081317;28;20520;-49
2024/01/05 10:24:21;;;;;;;8.40;3.90;;;;;;;9.87;100.00;99685.50;5083042;28;20488;-46
2024/01/05 10:27:05;;;;;;;9.85;3.95;;;;;;;10.06;100.00;99685.13;5080894;28;20222;-45
2024/01/05 10:29:35;;;;;;;8.05;3.60;;;;;;;9.99;100.00;99687.34;5080591;28;20040;-44
2024/01/05 10:32:12;;;;;;;6.75;3.47;;;;;;;9.85;100.00;99678.56;5081392;28;20454;-46
2024/01/05 10:34:43;;;;;;;8.13;3.67;;;;;;;10.03;100.00;99671.97;5078981;28;20124;-44
2024/01/05 10:37:11;;;;;;;30.48;15.32;;;;;;;9.86;100.00;99672.28;5083536;28;20036;-47
2024/01/05 10:39:46;;;;;;;47.13;20.80;;;;;;;10.09;100.00;99668.91;5082436;28;20044;-46
2024/01/05 10:42:22;;;;;;;41.28;17.90;;;;;;;10.20;100.00;99662.84;5081443;28;20060;-45
2024/01/05 10:44:52;;;;;;;9.30;4.35;;;;;;;10.22;100.00;99651.16;5083648;28;20036;-45
2024/01/05 10:47:21;;;;;;;7.40;3.63;;;;;;;10.20;100.00;99647.72;5080013;28;20393;-46
2024/01/05 10:49:54;;;;;;;6.70;2.92;;;;;;;10.17;100.00;99644.44;5081027;28;20128;-44
2024/01/05 10:52:28;;;;;;;7.07;2.63;;;;;;;10.09;100.00;99644.94;5077341;28;20079;-46
2024/01/05 10:54:56;;;;;;;10.77;4.53;;;;;;;10.11;100.00;99632.34;5081461;28;20051;-46
2024/01/05 10:57:24;;;;;;;6.47;2.80;;;;;;;10.29;100.00;99623.13;5086267;28;20438;-45
2024/01/05 10:59:54;;;;;;;4.88;2.63;;;;;;;10.26;100.00;99619.84;5074995;28;20049;-47
2024/01/05 11:02:33;;;;;;;6.13;2.40;;;;;;;10.40;100.00;99616.22;5081928;28;20063;-45
2024/01/05 11:05:08;;;;;;;5.65;2.50;;;;;;;10.39;100.00;99614.50;5081999;28;20048;-44
2024/01/05 11:07:38;;;;;;;6.43;2.55;;;;;;;10.48;100.00;99611.19;5074346;28;20090;-47
2024/01/05 11:10:19;;;;;;;6.50;2.47;;;;;;;10.53;100.00;99615.25;5074253;28;20040;-45
2024/01/05 11:13:03;;;;;;;5.13;2.13;;;;;;;10.57;100.00;99607.88;5079809;28;20118;-46
2024/01/05 11:15:48;;;;;;;6.00;2.30;;;;;;;10.56;100.00;99609.69;5075111;28;20052;-46
2024/01/05 11:18:47;;;;;;;5.55;2.40;;;;;;;10.59;100.00;99608.63;5072875;28;20048;-46
2024/01/05 11:21:21;;;;;;;6.55;2.08;;;;;;;10.55;100.00;99602.66;5072945;28;20841;-44
2024/01/05 11:23:53;;;;;;;2.45;1.45;;;;;;;10.60;100.00;99599.66;5075487;28;20048;-45
2024/01/05 11:26:34;;;;;;;4.30;1.60;;;;;;;10.54;100.00;99608.13;5074055;28;20078;-45
2024/01/05 11:29:03;;;;;;;3.90;1.65;;;;;;;10.60;100.00;99597.84;5076044;28;20064;-47
2024/01/05 11:31:50;;;;;;;4.25;1.55;;;;;;;10.60;100.00;99589.00;5092072;28;20068;-45
2024/01/05 11:34:37;;;;;;;4.03;1.77;;;;;;;10.65;100.00;99581.53;5087508;28;20052;-45
2024/01/05 11:37:08;;;;;;;5.43;1.60;;;;;;;10.66;100.00;99577.91;5084659;28;20047;-44
2024/01/05 11:39:40;;;;;;;4.72;1.60;;;;;;;10.69;100.00;99561.66;5083936;28;20037;-45
2024/01/05 11:42:09;;;;;;;4.35;1.80;;;;;;;10.64;100.00;99561.16;5080483;28;20110;-45